createdAt,value
2023-01-13T00:01:27.085Z,13.00
2023-01-13T00:03:54.151Z,13.00
2023-01-13T00:06:25.867Z,12.90
2023-01-13T00:08:53.788Z,13.00
2023-01-13T00:11:21.830Z,13.00
2023-01-13T00:13:48.895Z,13.00
2023-01-13T00:16:18.162Z,13.00
2023-01-13T00:18:46.254Z,13.00
2023-01-13T00:21:24.596Z,13.10
2023-01-13T00:23:55.173Z,13.10
2023-01-13T00:26:27.599Z,13.10
2023-01-13T00:28:58.700Z,13.10
2023-01-13T00:31:26.180Z,13.00
2023-01-13T00:33:55.881Z,13.00
2023-01-13T00:36:23.004Z,13.00
2023-01-13T00:38:50.187Z,13.00
2023-01-13T00:41:19.503Z,13.10
2023-01-13T00:43:47.286Z,13.00
2023-01-13T00:46:16.607Z,13.00
2023-01-13T00:48:43.747Z,13.00
2023-01-13T00:51:21.738Z,13.00
2023-01-13T00:53:50.976Z,13.10
2023-01-13T00:56:22.135Z,13.10
2023-01-13T00:58:58.799Z,13.10
2023-01-13T01:01:26.423Z,13.10
2023-01-13T01:03:54.607Z,13.10
2023-01-13T01:06:24.291Z,13.10
2023-01-13T01:08:52.299Z,12.90
2023-01-13T01:11:26.091Z,13.00
2023-01-13T01:13:55.695Z,13.00
2023-01-13T01:16:25.382Z,13.00
2023-01-13T01:18:53.801Z,13.00
2023-01-13T01:21:23.297Z,13.00
2023-01-13T01:23:50.576Z,12.90
2023-01-13T01:26:20.886Z,13.00
2023-01-13T01:28:48.322Z,12.90
2023-01-13T01:31:21.382Z,12.80
2023-01-13T01:33:48.734Z,12.70
2023-01-13T01:36:17.981Z,12.80
2023-01-13T01:38:45.521Z,12.90
2023-01-13T01:41:18.475Z,12.90
2023-01-13T01:43:59.424Z,12.80
2023-01-13T01:46:35.714Z,12.90
2023-01-13T01:49:05.909Z,12.90
2023-01-13T01:51:38.665Z,12.80
2023-01-13T01:54:09.534Z,12.80
2023-01-13T01:56:37.516Z,12.80
2023-01-13T01:59:04.518Z,12.80
2023-01-13T02:01:33.937Z,12.80
2023-01-13T02:04:11.234Z,12.80
2023-01-13T02:06:39.121Z,12.80
2023-01-13T02:09:06.964Z,12.80
2023-01-13T02:11:54.345Z,12.70
2023-01-13T02:14:25.089Z,12.70
2023-01-13T02:17:00.006Z,12.60
2023-01-13T02:19:38.791Z,12.70
2023-01-13T02:22:46.880Z,12.70
2023-01-13T02:25:36.499Z,12.70
2023-01-13T02:28:26.478Z,12.80
2023-01-13T02:31:19.918Z,12.60
2023-01-13T02:34:17.210Z,12.70
2023-01-13T02:37:30.351Z,12.60
2023-01-13T02:40:00.073Z,12.60
2023-01-13T02:43:09.944Z,12.70
2023-01-13T02:46:08.247Z,12.60
2023-01-13T02:48:38.183Z,12.60
2023-01-13T02:51:10.081Z,12.60
2023-01-13T02:53:45.997Z,12.50
2023-01-13T02:56:14.973Z,12.60
2023-01-13T02:58:44.031Z,12.60
2023-01-13T03:01:11.400Z,12.50
2023-01-13T03:03:38.327Z,12.50
2023-01-13T03:06:22.424Z,12.60
2023-01-13T03:09:03.541Z,12.50
2023-01-13T03:11:40.162Z,12.50
2023-01-13T03:14:29.762Z,12.40
2023-01-13T03:17:26.643Z,12.40
2023-01-13T03:20:06.560Z,12.40
2023-01-13T03:22:48.008Z,12.40
2023-01-13T03:25:17.972Z,12.50
2023-01-13T03:27:55.778Z,12.50
2023-01-13T03:30:24.957Z,12.30
2023-01-13T03:33:06.550Z,12.30
2023-01-13T03:35:46.789Z,12.40
2023-01-13T03:38:21.899Z,12.40
2023-01-13T03:40:56.256Z,12.40
2023-01-13T03:43:48.559Z,12.50
2023-01-13T03:46:26.671Z,12.40
2023-01-13T03:48:56.631Z,12.30
2023-01-13T03:51:26.558Z,12.30
2023-01-13T03:53:58.413Z,12.40
2023-01-13T03:56:35.760Z,12.50
2023-01-13T03:59:08.117Z,12.50
2023-01-13T04:01:47.225Z,12.50
2023-01-13T04:04:19.288Z,12.60
2023-01-13T04:06:58.134Z,12.70
2023-01-13T04:09:42.374Z,12.60
2023-01-13T04:12:13.339Z,12.50
2023-01-13T04:14:41.573Z,12.40
2023-01-13T04:17:08.553Z,12.40
2023-01-13T04:19:35.440Z,12.50
2023-01-13T04:22:02.599Z,12.40
2023-01-13T04:24:29.560Z,12.40
2023-01-13T04:26:56.580Z,12.30
2023-01-13T04:29:23.589Z,12.30
2023-01-13T04:31:50.543Z,12.20
2023-01-13T04:34:17.559Z,12.20
2023-01-13T04:36:45.207Z,12.20
2023-01-13T04:39:12.468Z,12.20
2023-01-13T04:41:58.017Z,12.20
2023-01-13T04:44:26.162Z,12.20
2023-01-13T04:46:53.398Z,12.20
2023-01-13T04:49:20.401Z,12.20
2023-01-13T04:51:47.372Z,12.20
2023-01-13T04:54:14.720Z,12.20
2023-01-13T04:56:41.850Z,12.20
2023-01-13T04:59:10.838Z,12.20
2023-01-13T05:01:38.778Z,12.30
2023-01-13T05:04:06.352Z,12.20
2023-01-13T05:06:33.489Z,12.20
2023-01-13T05:09:00.517Z,12.10
2023-01-13T05:11:46.035Z,12.10
2023-01-13T05:14:31.632Z,12.20
2023-01-13T05:17:01.235Z,12.30
2023-01-13T05:19:33.745Z,12.30
2023-01-13T05:22:19.871Z,12.10
2023-01-13T05:25:05.920Z,12.10
2023-01-13T05:27:33.753Z,12.00
2023-01-13T05:30:01.087Z,12.00
2023-01-13T05:32:28.148Z,12.00
2023-01-13T05:34:55.931Z,12.10
2023-01-13T05:37:24.425Z,12.10
2023-01-13T05:40:10.087Z,12.10
2023-01-13T05:42:55.397Z,12.00
2023-01-13T05:45:22.366Z,11.90
2023-01-13T05:47:49.395Z,12.00
2023-01-13T05:50:17.277Z,12.00
2023-01-13T05:52:44.704Z,11.90
2023-01-13T05:55:12.121Z,11.90
2023-01-13T05:57:39.076Z,11.90
2023-01-13T06:00:06.776Z,12.00
2023-01-13T06:02:33.912Z,11.90
2023-01-13T06:05:00.873Z,12.00
2023-01-13T06:07:27.798Z,11.90
2023-01-13T06:09:54.761Z,11.90
2023-01-13T06:12:21.714Z,12.00
2023-01-13T06:14:48.711Z,12.00
2023-01-13T06:17:16.657Z,12.00
2023-01-13T06:19:43.642Z,12.00
2023-01-13T06:22:21.702Z,12.00
2023-01-13T06:24:55.927Z,12.00
2023-01-13T06:27:23.524Z,12.00
2023-01-13T06:29:50.746Z,11.90
2023-01-13T06:32:22.108Z,12.00
2023-01-13T06:34:55.792Z,12.00
2023-01-13T06:37:25.508Z,12.10
2023-01-13T06:39:58.660Z,12.00
2023-01-13T06:42:46.888Z,12.00
2023-01-13T06:45:14.131Z,12.00
2023-01-13T06:47:41.586Z,11.90
2023-01-13T06:50:09.218Z,12.00
2023-01-13T06:52:36.256Z,12.00
2023-01-13T06:55:03.905Z,12.00
2023-01-13T06:57:30.942Z,12.00
2023-01-13T06:59:57.873Z,11.90
2023-01-13T07:02:24.823Z,12.00
2023-01-13T07:04:51.896Z,12.00
2023-01-13T07:07:18.850Z,12.00
2023-01-13T07:09:45.791Z,11.90
2023-01-13T07:12:12.766Z,12.00
2023-01-13T07:14:58.065Z,12.00
2023-01-13T07:17:27.699Z,12.10
2023-01-13T07:19:54.772Z,12.10
2023-01-13T07:22:21.784Z,12.10
2023-01-13T07:24:48.712Z,12.10
2023-01-13T07:27:15.726Z,12.00
2023-01-13T07:29:43.888Z,12.10
2023-01-13T07:32:10.834Z,12.10
2023-01-13T07:34:37.975Z,12.20
2023-01-13T07:37:05.039Z,12.10
2023-01-13T07:39:32.023Z,12.10
2023-01-13T07:42:17.869Z,12.20
2023-01-13T07:44:44.956Z,12.20
2023-01-13T07:47:11.871Z,12.20
2023-01-13T07:49:39.041Z,12.10
2023-01-13T07:52:06.122Z,12.10
2023-01-13T07:54:40.753Z,12.20
2023-01-13T07:57:08.337Z,12.20
2023-01-13T07:59:35.348Z,12.20
2023-01-13T08:02:02.544Z,12.20
2023-01-13T08:04:29.675Z,11.90
2023-01-13T08:06:56.600Z,11.70
2023-01-13T08:09:23.574Z,11.40
2023-01-13T08:12:13.719Z,11.30
2023-01-13T08:14:40.852Z,11.30
2023-01-13T08:17:09.103Z,11.20
2023-01-13T08:19:36.032Z,11.10
2023-01-13T08:22:03.060Z,11.10
2023-01-13T08:24:30.104Z,11.10
2023-01-13T08:26:57.191Z,11.20
2023-01-13T08:29:24.188Z,11.20
2023-01-13T08:31:51.304Z,11.30
2023-01-13T08:34:18.245Z,11.30
2023-01-13T08:36:45.264Z,11.30
2023-01-13T08:39:12.330Z,11.40
2023-01-13T08:41:58.577Z,11.40
2023-01-13T08:44:27.137Z,11.50
2023-01-13T08:46:54.923Z,11.60
2023-01-13T08:49:23.243Z,11.60
2023-01-13T08:51:50.726Z,11.80
2023-01-13T08:54:18.466Z,12.00
2023-01-13T08:56:45.894Z,12.10
2023-01-13T08:59:18.681Z,12.30
2023-01-13T09:01:46.381Z,12.40
2023-01-13T09:04:18.451Z,12.50
2023-01-13T09:06:46.586Z,12.60
2023-01-13T09:09:14.084Z,12.60
2023-01-13T09:12:02.580Z,12.70
2023-01-13T09:14:32.215Z,12.80
2023-01-13T09:17:00.021Z,12.90
2023-01-13T09:19:28.368Z,13.00
2023-01-13T09:21:56.459Z,13.30
2023-01-13T09:24:24.636Z,13.40
2023-01-13T09:26:52.101Z,13.60
2023-01-13T09:29:19.738Z,13.70
2023-01-13T09:31:47.183Z,13.50
2023-01-13T09:34:51.930Z,13.60
2023-01-13T09:37:19.040Z,13.40
2023-01-13T09:39:46.033Z,13.30
2023-01-13T09:42:59.040Z,13.10
2023-01-13T09:45:50.421Z,13.10
2023-01-13T09:48:52.065Z,13.30
2023-01-13T09:51:30.768Z,13.30
2023-01-13T09:54:05.411Z,13.20
2023-01-13T09:56:32.489Z,13.10
2023-01-13T09:58:59.472Z,13.10
2023-01-13T10:01:45.271Z,12.90
2023-01-13T10:04:15.001Z,13.00
2023-01-13T10:06:47.677Z,13.10
2023-01-13T10:09:44.828Z,13.10
2023-01-13T10:12:39.093Z,13.10
2023-01-13T10:15:06.606Z,13.00
2023-01-13T10:18:05.867Z,12.80
2023-01-13T10:20:37.775Z,13.00
2023-01-13T10:23:45.867Z,12.90
2023-01-13T10:26:45.186Z,12.90
2023-01-13T10:29:25.225Z,13.10
2023-01-13T10:31:53.878Z,13.20
2023-01-13T10:34:22.098Z,13.30
2023-01-13T10:37:06.466Z,13.50
2023-01-13T10:39:42.688Z,13.40
2023-01-13T10:42:18.647Z,13.70
2023-01-13T10:44:57.042Z,14.00
2023-01-13T10:47:28.494Z,14.30
2023-01-13T10:50:22.354Z,14.60
2023-01-13T10:53:18.377Z,14.80
2023-01-13T10:56:02.135Z,14.90
2023-01-13T10:58:29.532Z,14.90
2023-01-13T11:01:05.246Z,14.90
2023-01-13T11:03:43.510Z,15.00
2023-01-13T11:06:21.115Z,14.70
2023-01-13T11:08:50.182Z,14.40
2023-01-13T11:11:28.065Z,14.20
2023-01-13T11:14:19.193Z,14.40
2023-01-13T11:16:53.655Z,14.30
2023-01-13T11:19:24.046Z,14.40
2023-01-13T11:21:57.050Z,14.40
2023-01-13T11:24:43.068Z,14.50
2023-01-13T11:27:31.590Z,14.50
2023-01-13T11:30:30.498Z,14.60
2023-01-13T11:33:03.271Z,14.70
2023-01-13T11:35:32.008Z,14.60
2023-01-13T11:38:10.273Z,14.60
2023-01-13T11:40:42.638Z,14.30
2023-01-13T11:44:04.071Z,14.20
2023-01-13T11:46:32.648Z,14.20
2023-01-13T11:49:00.708Z,14.20
2023-01-13T11:51:37.947Z,14.00
2023-01-13T11:54:28.793Z,13.80
2023-01-13T11:56:58.742Z,13.70
2023-01-13T11:59:31.585Z,13.60
2023-01-13T12:02:01.530Z,13.50
2023-01-13T12:04:32.412Z,13.50
2023-01-13T12:07:13.757Z,13.50
2023-01-13T12:09:49.430Z,13.80
2023-01-13T12:13:01.316Z,13.80
2023-01-13T12:16:01.507Z,13.70
2023-01-13T12:19:07.565Z,13.80
2023-01-13T12:21:59.196Z,14.00
2023-01-13T12:24:49.407Z,14.00
2023-01-13T12:27:34.066Z,13.80
2023-01-13T12:30:11.072Z,13.60
2023-01-13T12:32:39.597Z,13.60
2023-01-13T12:35:31.258Z,13.50
2023-01-13T12:38:29.887Z,13.50
2023-01-13T12:41:02.689Z,13.50
2023-01-13T12:43:48.654Z,13.60
2023-01-13T12:46:21.706Z,13.60
2023-01-13T12:48:54.927Z,13.70
2023-01-13T12:51:35.688Z,13.60
2023-01-13T12:54:37.672Z,13.40
2023-01-13T12:57:16.771Z,13.20
2023-01-13T12:59:48.781Z,12.80
2023-01-13T13:02:16.290Z,12.60
2023-01-13T13:04:52.439Z,12.20
2023-01-13T13:07:26.833Z,11.70
2023-01-13T13:09:59.428Z,11.30
2023-01-13T13:13:11.652Z,10.50
2023-01-13T13:15:39.005Z,9.60
2023-01-13T13:18:08.653Z,9.30
2023-01-13T13:20:57.701Z,9.30
2023-01-13T13:23:52.918Z,9.30
2023-01-13T13:26:24.889Z,9.60
2023-01-13T13:29:19.271Z,9.90
2023-01-13T13:32:12.888Z,9.80
2023-01-13T13:35:12.090Z,9.90
2023-01-13T13:38:19.609Z,9.90
2023-01-13T13:41:06.537Z,10.10
2023-01-13T13:43:58.842Z,10.20
2023-01-13T13:46:46.999Z,10.20
2023-01-13T13:49:15.254Z,10.30
2023-01-13T13:51:59.536Z,10.40
2023-01-13T13:54:27.208Z,10.50
2023-01-13T13:56:54.466Z,10.40
2023-01-13T13:59:24.788Z,9.60
2023-01-13T14:02:06.347Z,10.60
2023-01-13T14:04:36.092Z,10.60
2023-01-13T14:07:20.715Z,10.50
2023-01-13T14:09:54.339Z,10.50
2023-01-13T14:12:27.066Z,10.50
2023-01-13T14:14:57.628Z,10.30
2023-01-13T14:17:26.907Z,10.20
2023-01-13T14:20:05.205Z,10.20
2023-01-13T14:22:32.887Z,10.10
2023-01-13T14:25:01.928Z,10.10
2023-01-13T14:27:30.549Z,10.10
2023-01-13T14:30:00.200Z,10.20
2023-01-13T14:32:35.036Z,10.10
2023-01-13T14:35:05.193Z,10.20
2023-01-13T14:37:38.729Z,10.20
2023-01-13T14:40:06.627Z,10.20
2023-01-13T14:42:35.535Z,10.20
2023-01-13T14:45:03.333Z,10.20
2023-01-13T14:47:33.887Z,10.30
2023-01-13T14:50:19.313Z,10.30
2023-01-13T14:52:57.368Z,10.20
2023-01-13T14:55:28.097Z,10.30
2023-01-13T14:58:20.721Z,10.30
2023-01-13T15:00:48.933Z,10.40
2023-01-13T15:03:17.829Z,10.40
2023-01-13T15:05:52.810Z,10.60
2023-01-13T15:08:24.372Z,10.60
2023-01-13T15:11:03.485Z,10.60
2023-01-13T15:13:53.356Z,10.60
2023-01-13T15:16:28.006Z,10.50
2023-01-13T15:18:56.392Z,10.50
2023-01-13T15:21:24.188Z,10.60
2023-01-13T15:23:51.307Z,10.60
2023-01-13T15:26:21.441Z,10.70
2023-01-13T15:28:49.506Z,10.60
2023-01-13T15:31:16.899Z,10.60
2023-01-13T15:33:44.384Z,10.50
2023-01-13T15:36:29.897Z,10.50
2023-01-13T15:38:58.344Z,10.40
2023-01-13T15:41:45.070Z,10.40
2023-01-13T15:44:32.193Z,10.30
2023-01-13T15:47:03.075Z,10.20
2023-01-13T15:49:34.985Z,10.10
2023-01-13T15:52:16.312Z,10.00
2023-01-13T15:54:43.213Z,10.10
2023-01-13T15:57:26.515Z,10.00
2023-01-13T15:59:56.893Z,10.00
2023-01-13T16:02:25.337Z,10.20
2023-01-13T16:04:54.092Z,10.20
2023-01-13T16:07:22.563Z,10.10
2023-01-13T16:09:49.741Z,10.10
2023-01-13T16:12:17.108Z,10.10
2023-01-13T16:14:44.117Z,10.10
2023-01-13T16:17:19.397Z,10.00
2023-01-13T16:19:47.172Z,10.00
2023-01-13T16:22:15.383Z,10.00
2023-01-13T16:24:42.980Z,10.00
2023-01-13T16:27:24.070Z,9.90
2023-01-13T16:29:52.280Z,10.00
2023-01-13T16:32:22.192Z,10.10
2023-01-13T16:34:50.469Z,10.10
2023-01-13T16:37:25.941Z,10.10
2023-01-13T16:39:53.960Z,10.10
2023-01-13T16:42:21.276Z,10.10
2023-01-13T16:44:49.173Z,10.10
2023-01-13T16:47:18.610Z,10.10
2023-01-13T16:49:46.242Z,10.20
2023-01-13T16:52:13.356Z,10.20
2023-01-13T16:54:40.624Z,10.20
2023-01-13T16:57:09.850Z,10.20
2023-01-13T16:59:36.887Z,10.20
2023-01-13T17:02:05.074Z,10.30
2023-01-13T17:04:32.093Z,10.30
2023-01-13T17:07:03.504Z,10.50
2023-01-13T17:09:31.113Z,10.40
2023-01-13T17:11:58.632Z,10.40
2023-01-13T17:14:26.214Z,10.30
2023-01-13T17:16:57.090Z,10.30
2023-01-13T17:19:26.013Z,10.30
2023-01-13T17:21:53.240Z,10.30
2023-01-13T17:24:20.955Z,10.10
2023-01-13T17:26:50.255Z,10.00
2023-01-13T17:29:21.877Z,9.80
2023-01-13T17:31:52.440Z,9.70
2023-01-13T17:34:21.098Z,9.60
2023-01-13T17:36:48.548Z,9.40
2023-01-13T17:39:24.612Z,9.30
2023-01-13T17:41:53.108Z,9.10
2023-01-13T17:44:22.059Z,9.00
2023-01-13T17:46:49.541Z,9.00
2023-01-13T17:49:19.382Z,8.80
2023-01-13T17:51:48.326Z,8.90
2023-01-13T17:54:15.961Z,9.00
2023-01-13T17:56:43.683Z,9.10
2023-01-13T17:59:15.859Z,9.30
2023-01-13T18:01:43.384Z,9.40
2023-01-13T18:04:23.852Z,9.40
2023-01-13T18:06:51.545Z,9.30
2023-01-13T18:09:18.487Z,9.20
2023-01-13T18:11:47.226Z,9.20
2023-01-13T18:14:14.409Z,9.20
2023-01-13T18:16:41.573Z,9.10
2023-01-13T18:19:28.208Z,9.10
2023-01-13T18:22:13.732Z,8.90
2023-01-13T18:25:13.207Z,9.00
2023-01-13T18:27:41.717Z,9.00
2023-01-13T18:30:09.963Z,9.00
2023-01-13T18:32:37.270Z,9.00
2023-01-13T18:35:07.380Z,9.10
2023-01-13T18:37:36.266Z,9.30
2023-01-13T18:40:04.829Z,9.30
2023-01-13T18:42:50.221Z,9.20
2023-01-13T18:45:19.755Z,9.30
2023-01-13T18:47:46.763Z,9.40
2023-01-13T18:50:13.966Z,9.30
2023-01-13T18:52:41.357Z,9.30
2023-01-13T18:55:08.815Z,9.30
2023-01-13T18:57:40.369Z,9.30
2023-01-13T19:00:14.661Z,9.40
2023-01-13T19:02:41.762Z,9.30
2023-01-13T19:05:10.301Z,9.30
2023-01-13T19:07:38.163Z,9.30
2023-01-13T19:10:08.224Z,9.30
2023-01-13T19:12:35.899Z,9.30
2023-01-13T19:15:03.093Z,9.30
2023-01-13T19:17:35.159Z,9.30
2023-01-13T19:20:02.853Z,9.20
2023-01-13T19:22:32.901Z,9.30
2023-01-13T19:25:02.263Z,9.30
2023-01-13T19:27:30.316Z,9.30
2023-01-13T19:30:00.329Z,9.30
2023-01-13T19:32:28.016Z,9.30
2023-01-13T19:34:59.168Z,9.30
2023-01-13T19:37:34.308Z,9.20
2023-01-13T19:40:01.476Z,9.20
2023-01-13T19:42:47.168Z,9.10
2023-01-13T19:45:27.749Z,9.10
2023-01-13T19:47:55.850Z,9.00
2023-01-13T19:50:23.320Z,8.90
2023-01-13T19:52:50.344Z,8.90
2023-01-13T19:55:17.490Z,9.00
2023-01-13T19:57:44.693Z,9.10
2023-01-13T20:00:15.167Z,9.20
2023-01-13T20:02:47.965Z,9.20
2023-01-13T20:05:25.977Z,9.10
2023-01-13T20:07:53.999Z,9.00
2023-01-13T20:10:23.446Z,9.10
2023-01-13T20:12:50.610Z,9.00
2023-01-13T20:15:17.811Z,9.10
2023-01-13T20:17:44.923Z,9.10
2023-01-13T20:20:12.199Z,9.10
2023-01-13T20:22:40.161Z,9.10
2023-01-13T20:25:08.535Z,9.20
2023-01-13T20:27:35.923Z,9.20
2023-01-13T20:30:02.962Z,9.20
2023-01-13T20:32:30.041Z,9.20
2023-01-13T20:34:57.118Z,9.20
2023-01-13T20:37:24.108Z,9.30
2023-01-13T20:39:51.100Z,9.30
2023-01-13T20:42:29.995Z,9.30
2023-01-13T20:44:58.214Z,9.40
2023-01-13T20:47:26.758Z,9.30
2023-01-13T20:49:53.887Z,9.30
2023-01-13T20:52:21.115Z,9.20
2023-01-13T20:54:48.165Z,9.20
2023-01-13T20:57:15.210Z,9.20
2023-01-13T20:59:42.290Z,9.10
2023-01-13T21:02:13.794Z,9.10
2023-01-13T21:04:41.422Z,9.20
2023-01-13T21:07:08.566Z,9.20
2023-01-13T21:09:35.833Z,9.20
2023-01-13T21:12:21.789Z,9.20
2023-01-13T21:15:07.090Z,9.20
2023-01-13T21:17:52.689Z,9.20
2023-01-13T21:20:19.876Z,9.40
2023-01-13T21:22:48.683Z,9.40
2023-01-13T21:25:16.844Z,9.50
2023-01-13T21:27:47.080Z,9.50
2023-01-13T21:30:15.564Z,9.50
2023-01-13T21:32:44.652Z,9.50
2023-01-13T21:35:12.996Z,9.40
2023-01-13T21:37:42.018Z,9.40
2023-01-13T21:40:11.405Z,9.30
2023-01-13T21:42:57.156Z,9.30
2023-01-13T21:45:42.681Z,9.30
2023-01-13T21:48:09.728Z,9.20
2023-01-13T21:50:38.251Z,9.20
2023-01-13T21:53:07.408Z,9.30
2023-01-13T21:55:36.590Z,9.30
2023-01-13T21:58:14.663Z,9.10
2023-01-13T22:00:43.939Z,9.00
2023-01-13T22:03:12.520Z,9.10
2023-01-13T22:05:39.987Z,9.00
2023-01-13T22:08:07.770Z,9.10
2023-01-13T22:10:35.223Z,9.10
2023-01-13T22:13:22.924Z,9.10
2023-01-13T22:15:50.056Z,9.10
2023-01-13T22:18:18.256Z,9.10
2023-01-13T22:20:45.771Z,9.10
2023-01-13T22:23:12.779Z,9.20
2023-01-13T22:25:39.885Z,9.10
2023-01-13T22:28:09.075Z,9.20
2023-01-13T22:30:36.476Z,9.20
2023-01-13T22:33:03.652Z,9.20
2023-01-13T22:35:30.723Z,9.20
2023-01-13T22:37:58.667Z,9.20
2023-01-13T22:40:25.780Z,9.30
2023-01-13T22:42:52.707Z,9.30
2023-01-13T22:45:19.852Z,9.30
2023-01-13T22:47:46.866Z,9.30
2023-01-13T22:50:13.852Z,9.40
2023-01-13T22:52:40.909Z,9.40
2023-01-13T22:55:08.325Z,9.40
2023-01-13T22:57:46.943Z,9.40
2023-01-13T23:00:18.759Z,9.50
2023-01-13T23:02:45.919Z,9.50
2023-01-13T23:05:13.821Z,9.50
2023-01-13T23:07:41.141Z,9.50
2023-01-13T23:10:08.517Z,9.40
2023-01-13T23:12:35.517Z,9.40
2023-01-13T23:15:02.539Z,9.30
2023-01-13T23:17:29.532Z,9.30
2023-01-13T23:19:56.782Z,9.30
2023-01-13T23:22:23.820Z,9.40
2023-01-13T23:24:50.762Z,9.40
2023-01-13T23:27:17.652Z,9.50
2023-01-13T23:29:44.617Z,9.40
2023-01-13T23:32:11.506Z,9.40
2023-01-13T23:34:38.500Z,9.40
2023-01-13T23:37:05.491Z,9.40
2023-01-13T23:39:32.434Z,9.40
2023-01-13T23:41:59.642Z,9.30
2023-01-13T23:44:26.590Z,9.50
2023-01-13T23:46:53.615Z,9.30
2023-01-13T23:49:20.733Z,9.20
2023-01-13T23:51:51.163Z,9.20
2023-01-13T23:54:18.790Z,9.30
2023-01-13T23:56:45.823Z,9.30
2023-01-13T23:59:12.690Z,9.20
